Sheppton, Pennsylvania
Current Conditions -  °F | °C
As of 1:15 AM on Sunday 23 Nov 2014 (Local Time) from KHZL Reporting Station
Overcast Overcast  
Wind Chill: 41°   Ceiling: 9000
Heat Index: 41°   Visibility: 10mi
Dew Point: 19°   Wind: 3mph
Humidity: 42%   Direction: 230°SW
Pressure: 30.14"   Gusts: NA
Location:  40.9°N, 76.12°W
Report Text: KHZL 230615Z AUTO 23003KT 10SM OVC090 05/M07 A3014 RMK AO2
Loading
Personal Weather Stations






























Interactive Weather Map New forecast layout! Learn more

10-Day Weather Forecast

Advertisements
Track Severe Weather on mobile